Pagrindinis puslapis
METAR-TAF:

METAR-TAF

Oro uostai :

Lečė, Italija

platuma: 40-14N, ilguma: 018-09E, Aukštis: 48 m

Dabartinis oras

Ataskaita buvo paskelbta 39 minutes, ne 02:55 UTC
Vėjas 1 kt nuo kintamojo kryptimis
Temperatūra 2°C
Drėgmė 87%
Slėgis 1024 hPa
Matomumas: 1200 m
Mažai debesys ne aukštis 1000 ft
rūkana

METAR: LIBN 180255Z VRB01KT 1200 BR FEW010 02/M00 Q1024 RMK FEW VIS MIN 1200 WIND THR14 VRB01KT WIND THR32 VRBO1KT AMB

Laikas: 04:34 (03:34 UTC)

Prognozė

Ataskaita buvo paskelbta 13 valandos ir 34 minutes, ne 14:00 UTC
Prognozė galioja nuo 17 metu 15 UTC su 17 metu 24 UTC
Vėjas 12 kt iš Šiaurės/Šiaurės Vakarų
Matomumas: 8000 m
Mažai debesys ne aukštis 1500 ft
Išsisklaidę debesys ne aukštis 2000 ft
Tapsmas
nuo 17 metu 17 UTC su 17 metu 19 UTC
Vėjas 5 kt iš Šiaurės/Šiaurės Vakarų
Matomumas: 5000 m
Išsisklaidę debesys ne aukštis 1000 ft
rūkana

TAF: LIBN 171400Z 1715/1724 34012KT 8000 FEW015 SCT020 BECMG 1717/1719 33005KT 5000 BR SCT010

Orai ataskaitas ir orų prognozės (METAR, TAF).

turimą stotys yra geltonos ir raudonos taškus žemėlapyje.

Perkelti pele per norėdami pamatyti stoties vardą.

Tada spustelėkite, norėdami matyti oro stebėjimo ir prognozės.

Norėdami pakeisti žemėlapį: spustelėkite ant žalios mygtukų su juodo kryžiaus žemyn,; žalią mygtuką su brūkšneliu, jei norite nutolinti; arba žalių rodyklių gretimoms žemėlapius.


METAR-TAF: